Thousand Springs, Nevada
Current Conditions -  °F | °C
As of 1:35 AM on Saturday 20 Dec 2014 (Local Time) from KENV Reporting Station
Overcast Overcast  
Wind Chill: -1°   Ceiling: 6500
Heat Index: -1°   Visibility: 10mi
Dew Point: -3°   Wind: 0mph
Humidity: 86%   Direction: NA
Pressure: 30.14"   Gusts: NA
Location:  41.0114°N, 114.57°W
Report Text: KENV 200935Z AUTO 00000KT 10SM OVC065 M01/M03 A3014 RMK AO1
Loading
Personal Weather Stations






























Interactive Weather Map New forecast layout! Learn more

10-Day Weather Forecast

Advertisements
Track Severe Weather on mobile